Time;durP1;ratioP1;P1;durP2;ratioP2;P2;SDS_P1;SDS_P2;PMS_P1;PMS_P2;Temp;Humidity;BMP_temperature;BMP_pressure;BME280_temperature;BME280_humidity;BME280_pressure;Samples;Min_cycle;Max_cycle;Signal;HPM_P1;HPM_P2
2023/08/28 00:02:09;;;;;;;6.63;5.00;;;13.80;99.90;;;;;;5054464;28;20104;-64
2023/08/28 00:04:35;;;;;;;8.05;5.13;;;13.80;99.90;;;;;;5054688;28;20044;-63
2023/08/28 00:07:00;;;;;;;8.27;5.88;;;13.80;99.90;;;;;;5053088;28;20430;-64
2023/08/28 00:09:26;;;;;;;8.20;5.68;;;13.80;99.90;;;;;;5053492;28;20036;-64
2023/08/28 00:11:54;;;;;;;9.27;5.72;;;13.70;99.90;;;;;;5054837;28;20044;-63
2023/08/28 00:14:20;;;;;;;7.28;5.93;;;13.80;99.90;;;;;;5052365;28;20044;-64
2023/08/28 00:16:46;;;;;;;7.72;5.32;;;13.80;99.90;;;;;;5054426;28;20045;-63
2023/08/28 00:19:12;;;;;;;10.52;5.80;;;13.80;99.90;;;;;;5053892;28;20123;-64
2023/08/28 00:21:37;;;;;;;7.10;5.15;;;13.80;99.90;;;;;;5054412;28;20028;-64
2023/08/28 00:24:04;;;;;;;8.95;5.75;;;13.80;99.90;;;;;;5053826;28;20083;-64
2023/08/28 00:26:30;;;;;;;6.65;5.30;;;13.80;99.90;;;;;;5053979;28;20402;-64
2023/08/28 00:28:56;;;;;;;6.78;5.32;;;13.80;99.90;;;;;;5052594;28;20033;-64
2023/08/28 00:31:21;;;;;;;7.82;5.68;;;13.80;99.90;;;;;;5055620;28;20041;-64
2023/08/28 00:33:47;;;;;;;6.25;5.00;;;13.80;99.90;;;;;;5074121;28;20036;-64
2023/08/28 00:36:13;;;;;;;11.23;5.38;;;13.80;99.90;;;;;;5060533;28;20041;-64
2023/08/28 00:38:38;;;;;;;7.75;5.93;;;13.80;99.90;;;;;;5064620;22;20132;-64
2023/08/28 00:41:04;;;;;;;7.43;5.30;;;13.80;99.90;;;;;;5034268;28;20056;-63
2023/08/28 00:43:29;;;;;;;10.23;5.72;;;13.70;99.90;;;;;;5045655;28;20036;-63
2023/08/28 00:45:55;;;;;;;5.80;4.93;;;13.70;99.90;;;;;;5053454;28;20037;-63
2023/08/28 00:48:22;;;;;;;6.55;4.85;;;13.70;99.90;;;;;;5050408;28;20520;-63
2023/08/28 00:50:49;;;;;;;7.47;4.93;;;13.70;99.90;;;;;;5052372;28;20386;-63
2023/08/28 00:53:16;;;;;;;7.53;4.35;;;13.70;99.90;;;;;;5052630;28;20036;-63
2023/08/28 00:55:42;;;;;;;7.18;4.78;;;13.60;99.90;;;;;;5027778;28;20041;-63
2023/08/28 00:58:08;;;;;;;6.63;4.60;;;13.70;99.90;;;;;;5052040;28;20087;-63
2023/08/28 01:00:34;;;;;;;7.00;4.80;;;13.60;99.90;;;;;;5052356;28;20098;-63
2023/08/28 01:03:00;;;;;;;6.03;4.85;;;13.50;99.90;;;;;;5053267;28;20048;-63
2023/08/28 01:05:51;;;;;;;7.30;4.95;;;13.50;99.90;;;;;;5052977;28;20033;-63
2023/08/28 01:08:47;;;;;;;6.97;6.00;;;13.40;99.90;;;;;;5051299;28;20494;-63
2023/08/28 01:11:33;;;;;;;6.53;4.85;;;13.50;99.90;;;;;;5053723;28;20075;-63
2023/08/28 01:14:21;;;;;;;6.18;5.40;;;13.40;99.90;;;;;;5052286;28;20475;-63
2023/08/28 01:16:49;;;;;;;6.00;4.97;;;13.40;99.90;;;;;;5033600;28;20048;-63
2023/08/28 01:19:36;;;;;;;8.75;5.15;;;13.30;99.90;;;;;;5033813;28;20033;-63
2023/08/28 01:22:16;;;;;;;7.22;5.60;;;13.30;99.90;;;;;;5041922;28;20048;-63
2023/08/28 01:24:48;;;;;;;10.00;6.07;;;13.20;99.90;;;;;;5045054;28;20041;-63
2023/08/28 01:27:14;;;;;;;10.63;5.80;;;13.10;99.90;;;;;;5053419;28;20501;-63
2023/08/28 01:29:40;;;;;;;9.23;6.05;;;13.10;99.90;;;;;;5053535;28;20041;-63
2023/08/28 01:32:06;;;;;;;6.88;5.43;;;13.00;99.90;;;;;;5050961;28;20041;-63
2023/08/28 01:34:31;;;;;;;6.35;5.22;;;13.00;99.90;;;;;;5025647;28;20095;-63
2023/08/28 01:37:06;;;;;;;7.00;5.25;;;13.10;99.90;;;;;;5038801;28;20033;-63
2023/08/28 01:39:39;;;;;;;7.78;5.82;;;13.10;99.90;;;;;;5043317;28;20068;-63
2023/08/28 01:42:07;;;;;;;8.77;6.25;;;13.10;99.90;;;;;;5033267;28;20094;-63
2023/08/28 01:44:34;;;;;;;9.43;6.93;;;13.10;99.90;;;;;;5035347;28;20049;-63
2023/08/28 01:47:00;;;;;;;9.45;6.88;;;13.20;99.90;;;;;;5050681;28;20037;-63
2023/08/28 01:49:32;;;;;;;9.95;7.63;;;13.10;99.90;;;;;;5051624;28;20029;-63
2023/08/28 01:51:57;;;;;;;9.63;7.15;;;13.10;99.90;;;;;;5050563;28;20389;-63
2023/08/28 01:54:24;;;;;;;10.27;7.38;;;13.10;99.90;;;;;;5051707;28;20041;-63
2023/08/28 01:56:50;;;;;;;9.13;7.30;;;13.10;99.90;;;;;;5052818;28;20033;-63
2023/08/28 01:59:16;;;;;;;10.68;7.97;;;13.10;99.90;;;;;;5052471;28;20064;-64
2023/08/28 02:01:41;;;;;;;11.73;7.78;;;13.10;99.90;;;;;;5049817;28;20114;-63
2023/08/28 02:04:07;;;;;;;10.80;8.93;;;13.10;99.90;;;;;;5050311;28;20507;-63
2023/08/28 02:06:33;;;;;;;11.52;8.63;;;13.10;99.90;;;;;;5049159;28;20036;-63
2023/08/28 02:08:58;;;;;;;10.70;8.50;;;13.00;99.90;;;;;;5052665;28;20036;-63
2023/08/28 02:11:24;;;;;;;14.27;8.65;;;13.00;99.90;;;;;;5051937;28;20393;-63
2023/08/28 02:13:50;;;;;;;10.68;8.82;;;13.00;99.90;;;;;;5051917;28;20037;-63
2023/08/28 02:16:17;;;;;;;12.35;8.60;;;13.00;99.90;;;;;;5051163;28;20028;-64
2023/08/28 02:18:43;;;;;;;12.98;10.02;;;13.00;99.90;;;;;;5052416;28;20438;-64
2023/08/28 02:21:08;;;;;;;11.43;9.10;;;13.00;99.90;;;;;;5048582;28;20044;-64
2023/08/28 02:23:34;;;;;;;13.95;9.88;;;13.00;99.90;;;;;;5051969;28;20036;-64
2023/08/28 02:26:00;;;;;;;11.40;8.77;;;13.00;99.90;;;;;;5052004;28;20078;-64
2023/08/28 02:28:25;;;;;;;13.57;9.95;;;12.90;99.90;;;;;;5043569;28;20045;-64
2023/08/28 02:30:51;;;;;;;13.63;10.50;;;12.90;99.90;;;;;;5052127;28;20406;-64
2023/08/28 02:33:17;;;;;;;19.23;10.20;;;12.90;99.90;;;;;;5051278;28;20037;-64
2023/08/28 02:35:43;;;;;;;12.52;10.07;;;12.90;99.90;;;;;;5049962;28;20041;-64
2023/08/28 02:38:10;;;;;;;14.35;10.40;;;12.90;99.90;;;;;;5044878;28;20486;-64
2023/08/28 02:40:37;;;;;;;14.55;10.27;;;12.90;99.90;;;;;;5050737;28;20075;-64
2023/08/28 02:43:07;;;;;;;14.88;10.18;;;12.90;99.90;;;;;;5050202;28;20054;-64
2023/08/28 02:45:34;;;;;;;14.55;10.00;;;12.90;99.90;;;;;;5050863;28;20040;-64
2023/08/28 02:47:59;;;;;;;13.57;9.95;;;12.90;99.90;;;;;;5046497;28;20029;-64
2023/08/28 02:50:25;;;;;;;14.60;10.18;;;12.90;99.90;;;;;;5051586;28;20067;-64
2023/08/28 02:52:51;;;;;;;15.80;10.77;;;12.90;99.90;;;;;;5049720;28;20416;-64
2023/08/28 02:55:16;;;;;;;15.80;10.50;;;12.90;99.90;;;;;;5050219;28;20151;-64
2023/08/28 02:57:42;;;;;;;14.93;10.32;;;12.90;99.90;;;;;;5051543;28;20037;-64
2023/08/28 03:00:08;;;;;;;17.38;10.32;;;12.80;99.90;;;;;;5051845;28;20033;-64
2023/08/28 03:02:34;;;;;;;14.38;10.18;;;12.90;99.90;;;;;;5042726;28;20037;-64
2023/08/28 03:04:59;;;;;;;14.45;10.52;;;12.90;99.90;;;;;;5050512;28;20124;-64
2023/08/28 03:07:25;;;;;;;14.10;10.13;;;12.90;99.90;;;;;;5050249;28;20064;-64
2023/08/28 03:09:50;;;;;;;12.75;9.93;;;12.90;99.90;;;;;;5026973;28;20051;-64
2023/08/28 03:12:16;;;;;;;14.95;10.10;;;12.90;99.90;;;;;;5050666;28;20375;-64
2023/08/28 03:14:42;;;;;;;14.68;9.32;;;12.90;99.90;;;;;;5051274;28;20087;-64
2023/08/28 03:17:07;;;;;;;12.00;9.32;;;12.80;99.90;;;;;;5050879;28;20090;-64
2023/08/28 03:19:33;;;;;;;14.75;9.68;;;12.80;99.90;;;;;;5051473;28;20045;-64
2023/08/28 03:21:59;;;;;;;12.10;9.45;;;12.80;99.90;;;;;;5051584;28;20040;-64
2023/08/28 03:24:25;;;;;;;14.77;9.68;;;12.80;99.90;;;;;;5051400;28;20068;-64
2023/08/28 03:26:50;;;;;;;12.80;9.10;;;12.80;99.90;;;;;;5045589;28;20055;-64
2023/08/28 03:29:16;;;;;;;11.63;9.13;;;12.90;99.90;;;;;;5046735;28;20036;-64
2023/08/28 03:31:41;;;;;;;11.75;9.23;;;12.90;99.90;;;;;;5051126;28;20405;-64
2023/08/28 03:34:08;;;;;;;12.07;8.45;;;12.80;99.90;;;;;;5011422;28;20114;-64
2023/08/28 03:36:33;;;;;;;13.45;8.48;;;12.80;99.90;;;;;;5044919;28;20032;-64
2023/08/28 03:38:59;;;;;;;13.30;8.90;;;12.80;99.90;;;;;;5051181;28;20117;-64
2023/08/28 03:41:24;;;;;;;11.10;8.45;;;12.80;99.90;;;;;;5051226;28;20490;-64
2023/08/28 03:43:50;;;;;;;11.35;8.27;;;12.70;99.90;;;;;;5049568;28;20112;-64
2023/08/28 03:46:16;;;;;;;10.88;8.50;;;12.70;99.90;;;;;;5032133;28;20052;-64
2023/08/28 03:48:41;;;;;;;9.98;7.82;;;12.70;99.90;;;;;;5050247;28;20044;-64
2023/08/28 03:51:07;;;;;;;9.45;7.45;;;12.60;99.90;;;;;;5043496;28;20053;-64
2023/08/28 03:53:33;;;;;;;8.50;7.60;;;12.60;99.90;;;;;;5049567;28;20041;-64
2023/08/28 03:55:58;;;;;;;12.02;8.88;;;12.50;99.90;;;;;;5032551;28;20033;-64
2023/08/28 03:58:24;;;;;;;9.95;7.97;;;12.50;99.90;;;;;;5033016;28;20052;-64
2023/08/28 04:00:55;;;;;;;9.75;8.02;;;12.40;99.90;;;;;;5048287;28;20094;-64
2023/08/28 04:03:21;;;;;;;10.60;8.20;;;12.40;99.90;;;;;;5050023;28;20033;-64
2023/08/28 04:05:48;;;;;;;11.02;8.40;;;12.30;99.90;;;;;;5049984;28;20582;-64
2023/08/28 04:08:15;;;;;;;11.73;8.15;;;12.30;99.90;;;;;;5048712;28;20127;-64
2023/08/28 04:10:41;;;;;;;13.07;8.43;;;12.30;99.90;;;;;;5042728;28;20025;-64
2023/08/28 04:13:08;;;;;;;11.52;8.68;;;12.20;99.90;;;;;;5048938;28;20045;-64
2023/08/28 04:15:33;;;;;;;11.75;8.90;;;12.20;99.90;;;;;;5041054;28;20486;-64
2023/08/28 04:17:59;;;;;;;11.77;7.63;;;12.20;99.90;;;;;;5045735;28;20036;-64
2023/08/28 04:20:25;;;;;;;9.10;7.78;;;12.20;99.90;;;;;;5051771;28;20037;-63
2023/08/28 04:22:51;;;;;;;10.88;7.22;;;12.20;99.90;;;;;;5042915;28;20040;-64
2023/08/28 04:25:16;;;;;;;10.95;7.95;;;12.20;99.90;;;;;;5050312;28;20064;-64
2023/08/28 04:27:42;;;;;;;13.07;8.63;;;12.10;99.90;;;;;;5049347;28;20036;-64
2023/08/28 04:30:09;;;;;;;11.27;7.85;;;12.10;99.90;;;;;;5034530;28;20493;-64
2023/08/28 04:32:35;;;;;;;11.23;7.13;;;12.10;99.90;;;;;;5047923;28;20049;-64
2023/08/28 04:35:01;;;;;;;11.02;7.70;;;12.10;99.90;;;;;;5053254;28;20068;-63
2023/08/28 04:37:27;;;;;;;9.98;7.18;;;12.10;99.90;;;;;;5053997;28;20065;-64
2023/08/28 04:39:53;;;;;;;10.60;7.50;;;12.10;99.90;;;;;;5054460;28;20575;-64
2023/08/28 04:42:19;;;;;;;9.50;7.18;;;12.00;99.90;;;;;;5054353;28;20043;-64
2023/08/28 04:44:45;;;;;;;11.73;8.23;;;12.00;99.90;;;;;;5053561;28;20037;-64
2023/08/28 04:47:12;;;;;;;10.20;8.48;;;12.00;99.90;;;;;;5053724;28;20037;-64
2023/08/28 04:49:38;;;;;;;10.65;8.25;;;12.00;99.90;;;;;;5054475;28;20041;-64
2023/08/28 04:52:04;;;;;;;11.57;9.13;;;12.00;99.90;;;;;;5037359;28;20406;-64
2023/08/28 04:54:29;;;;;;;12.50;8.30;;;12.00;99.90;;;;;;5052199;28;20077;-64
2023/08/28 04:56:57;;;;;;;9.05;7.55;;;12.00;99.90;;;;;;5053833;28;20037;-63
2023/08/28 04:59:23;;;;;;;10.73;7.15;;;12.00;99.90;;;;;;5054050;28;20037;-64
2023/08/28 05:01:48;;;;;;;9.55;7.65;;;11.90;99.90;;;;;;5053319;28;20121;-64
2023/08/28 05:04:14;;;;;;;10.57;8.45;;;11.90;99.90;;;;;;5051406;28;20041;-64
2023/08/28 05:06:40;;;;;;;13.88;9.43;;;11.90;99.90;;;;;;5052983;28;20371;-63
2023/08/28 05:09:06;;;;;;;14.38;9.48;;;12.00;99.90;;;;;;5053233;28;20068;-64
2023/08/28 05:11:31;;;;;;;12.82;9.73;;;12.00;99.90;;;;;;5053892;28;20120;-64
2023/08/28 05:13:57;;;;;;;14.43;9.88;;;12.10;99.90;;;;;;5053035;28;20450;-64
2023/08/28 05:16:23;;;;;;;14.32;10.02;;;12.10;99.90;;;;;;5052650;28;20041;-64
2023/08/28 05:18:49;;;;;;;13.85;9.43;;;12.10;99.90;;;;;;5042454;28;20095;-64
2023/08/28 05:21:14;;;;;;;15.43;9.82;;;12.20;99.90;;;;;;5053659;28;20068;-63
2023/08/28 05:23:40;;;;;;;13.82;10.05;;;12.20;99.90;;;;;;5053302;28;20124;-64
2023/08/28 05:26:05;;;;;;;14.45;9.85;;;12.30;99.90;;;;;;5052644;28;20056;-64
2023/08/28 05:28:34;;;;;;;15.88;9.98;;;12.30;99.90;;;;;;5052619;28;20044;-64
2023/08/28 05:31:00;;;;;;;13.52;10.15;;;12.30;99.90;;;;;;5052848;28;20041;-64
2023/08/28 05:33:26;;;;;;;15.43;9.90;;;12.30;99.90;;;;;;5052122;28;20052;-64
2023/08/28 05:35:51;;;;;;;13.38;9.57;;;12.40;99.90;;;;;;5051599;28;20049;-64
2023/08/28 05:38:17;;;;;;;15.00;10.27;;;12.30;99.90;;;;;;5048482;28;20037;-64
2023/08/28 05:40:43;;;;;;;14.15;10.25;;;12.40;99.90;;;;;;5052245;28;20032;-64
2023/08/28 05:43:09;;;;;;;14.40;10.07;;;12.50;99.90;;;;;;5050354;28;20048;-64
2023/08/28 05:45:35;;;;;;;14.95;10.10;;;12.50;99.90;;;;;;5052296;28;20152;-64
2023/08/28 05:48:00;;;;;;;15.98;9.75;;;12.50;99.90;;;;;;5052013;28;20099;-63
2023/08/28 05:50:26;;;;;;;16.25;10.27;;;12.60;99.90;;;;;;5050081;28;20032;-64
2023/08/28 05:52:51;;;;;;;15.52;10.35;;;12.70;99.90;;;;;;5049710;28;20045;-64
2023/08/28 05:55:17;;;;;;;13.15;9.00;;;12.60;99.90;;;;;;5043725;28;20042;-64
2023/08/28 05:57:43;;;;;;;16.58;10.13;;;12.70;99.90;;;;;;5050064;28;20676;-64
2023/08/28 06:00:09;;;;;;;14.27;9.75;;;12.70;99.90;;;;;;5051388;28;20040;-64
2023/08/28 06:02:34;;;;;;;14.38;10.00;;;12.80;99.90;;;;;;5052070;28;20033;-64
2023/08/28 06:05:00;;;;;;;14.35;9.52;;;12.80;99.90;;;;;;5024626;28;20037;-64
2023/08/28 06:07:26;;;;;;;15.60;10.43;;;12.80;99.90;;;;;;5051629;28;20108;-64
2023/08/28 06:09:52;;;;;;;12.60;8.88;;;12.90;99.90;;;;;;5040204;28;20062;-64
2023/08/28 06:12:17;;;;;;;15.13;9.93;;;12.90;99.90;;;;;;5049371;28;20037;-64
2023/08/28 06:14:43;;;;;;;14.52;10.45;;;13.00;99.90;;;;;;5052006;28;20041;-64
2023/08/28 06:17:09;;;;;;;15.38;9.65;;;13.00;99.90;;;;;;5050659;28;20052;-64
2023/08/28 06:19:34;;;;;;;12.23;9.20;;;13.10;99.90;;;;;;5048957;28;20108;-64
2023/08/28 06:22:04;;;;;;;16.30;10.32;;;13.20;99.90;;;;;;5049716;28;20037;-64
2023/08/28 06:24:31;;;;;;;15.15;10.02;;;13.20;99.90;;;;;;5046668;28;20045;-64
2023/08/28 06:26:57;;;;;;;12.82;9.70;;;13.30;99.90;;;;;;5047089;28;20045;-64
2023/08/28 06:29:23;;;;;;;14.48;9.50;;;13.30;99.90;;;;;;5050064;28;20129;-64
2023/08/28 06:31:49;;;;;;;14.00;9.85;;;13.40;99.90;;;;;;5027647;28;20045;-64
2023/08/28 06:34:15;;;;;;;13.43;9.45;;;13.40;99.90;;;;;;5043018;28;20037;-63
2023/08/28 06:36:41;;;;;;;13.85;9.88;;;13.40;99.90;;;;;;5052092;28;20106;-63
2023/08/28 06:39:07;;;;;;;12.15;9.10;;;13.50;99.90;;;;;;5092794;22;20226;-65
2023/08/28 06:41:33;;;;;;;13.43;9.85;;;13.60;99.90;;;;;;5088089;28;20119;-64
2023/08/28 06:44:00;;;;;;;14.02;8.93;;;13.80;99.90;;;;;;5085445;28;20028;-64
2023/08/28 06:46:25;;;;;;;14.05;9.10;;;13.80;99.90;;;;;;5092053;28;20047;-65
2023/08/28 06:48:52;;;;;;;15.18;9.20;;;13.90;99.90;;;;;;5091385;28;20044;-64
2023/08/28 06:51:19;;;;;;;12.23;8.65;;;14.00;99.90;;;;;;5082961;28;20415;-65
2023/08/28 06:53:44;;;;;;;11.55;8.20;;;14.20;99.90;;;;;;5091782;28;20036;-64
2023/08/28 06:56:10;;;;;;;13.18;8.45;;;14.30;99.90;;;;;;5091113;28;20438;-65
2023/08/28 06:58:36;;;;;;;11.85;7.90;;;14.40;99.90;;;;;;5091789;28;20032;-65
2023/08/28 07:01:02;;;;;;;12.65;7.93;;;14.50;99.90;;;;;;5092048;28;20063;-65
2023/08/28 07:03:27;;;;;;;13.90;7.97;;;14.70;99.90;;;;;;5090743;28;20044;-65
2023/08/28 07:05:53;;;;;;;11.57;7.70;;;14.80;99.90;;;;;;5089669;28;20063;-65
2023/08/28 07:08:18;;;;;;;9.70;6.95;;;14.90;99.90;;;;;;5091536;28;20032;-65
2023/08/28 07:10:44;;;;;;;12.25;7.72;;;15.00;99.90;;;;;;5091556;28;20496;-65
2023/08/28 07:13:09;;;;;;;8.98;6.90;;;15.20;99.90;;;;;;5073537;28;20496;-65
2023/08/28 07:15:35;;;;;;;9.52;7.38;;;15.30;99.90;;;;;;5088243;28;20032;-65
2023/08/28 07:18:01;;;;;;;9.82;6.85;;;15.40;99.90;;;;;;5089968;28;20047;-65
2023/08/28 07:20:26;;;;;;;11.45;6.57;;;15.50;99.90;;;;;;5090265;28;20040;-65
2023/08/28 07:22:55;;;;;;;8.95;6.20;;;15.70;99.90;;;;;;5085040;28;20036;-65
2023/08/28 07:25:22;;;;;;;8.88;6.05;;;15.90;99.90;;;;;;5088060;28;20477;-65
2023/08/28 07:27:49;;;;;;;9.07;5.93;;;15.90;99.90;;;;;;5089617;28;20036;-65
2023/08/28 07:30:14;;;;;;;8.07;5.72;;;16.10;99.90;;;;;;5087457;28;20477;-64
2023/08/28 07:32:40;;;;;;;7.38;5.57;;;16.20;99.90;;;;;;5086226;28;20036;-64
2023/08/28 07:35:07;;;;;;;7.78;5.75;;;16.30;99.90;;;;;;5085892;28;20043;-65
2023/08/28 07:37:34;;;;;;;8.13;5.35;;;16.40;99.90;;;;;;5069223;28;20043;-65
2023/08/28 07:40:00;;;;;;;7.13;5.47;;;16.50;99.90;;;;;;5083024;28;20548;-65
2023/08/28 07:42:26;;;;;;;7.53;5.65;;;16.60;99.90;;;;;;5086408;28;20194;-71
2023/08/28 07:44:51;;;;;;;9.52;4.75;;;16.70;99.90;;;;;;5090640;28;20036;-70
2023/08/28 07:47:18;;;;;;;6.75;5.07;;;16.80;99.90;;;;;;5089337;28;20032;-70
2023/08/28 07:49:43;;;;;;;7.78;4.60;;;17.00;99.90;;;;;;5089866;28;20085;-71
2023/08/28 07:52:09;;;;;;;6.75;4.50;;;17.10;99.90;;;;;;5090541;28;20044;-71
2023/08/28 07:54:36;;;;;;;6.93;4.10;;;17.30;99.90;;;;;;5087261;28;20138;-72
2023/08/28 07:57:03;;;;;;;5.20;3.35;;;17.50;99.90;;;;;;5093270;28;20110;-72
2023/08/28 07:59:29;;;;;;;4.78;3.90;;;17.60;99.90;;;;;;5094208;28;20377;-72
2023/08/28 08:01:57;;;;;;;7.75;4.05;;;17.70;99.90;;;;;;5095433;28;20054;-72
2023/08/28 08:04:23;;;;;;;4.65;3.40;;;17.80;99.90;;;;;;5094466;28;20115;-72
2023/08/28 08:06:49;;;;;;;3.95;3.22;;;17.90;99.90;;;;;;5095311;28;20079;-72
2023/08/28 08:09:14;;;;;;;6.20;3.15;;;18.00;99.90;;;;;;5095125;28;20048;-72
2023/08/28 08:11:40;;;;;;;3.50;2.80;;;18.10;99.90;;;;;;5094034;28;20032;-72
2023/08/28 08:14:06;;;;;;;5.57;2.22;;;18.30;99.90;;;;;;5092080;28;20048;-73
2023/08/28 08:16:31;;;;;;;4.90;2.00;;;18.30;99.90;;;;;;5086271;28;20036;-72
2023/08/28 08:18:57;;;;;;;7.15;2.20;;;18.30;99.90;;;;;;5095035;28;20047;-72
2023/08/28 08:21:23;;;;;;;6.53;2.35;;;18.30;99.90;;;;;;5094467;28;20111;-72
2023/08/28 08:23:49;;;;;;;3.75;2.15;;;18.40;99.90;;;;;;5094970;28;20136;-72
2023/08/28 08:26:14;;;;;;;5.60;2.80;;;18.40;99.90;;;;;;5094835;28;20158;-72
2023/08/28 08:28:41;;;;;;;3.55;1.90;;;18.30;99.90;;;;;;5093520;28;20115;-72
2023/08/28 08:31:06;;;;;;;5.15;2.70;;;18.50;99.90;;;;;;5094326;28;20073;-72
2023/08/28 08:33:32;;;;;;;3.63;2.40;;;18.60;99.90;;;;;;5094496;28;20486;-72
2023/08/28 08:35:57;;;;;;;4.80;1.70;;;18.60;99.90;;;;;;5094563;28;20043;-72
2023/08/28 08:38:23;;;;;;;2.53;1.42;;;18.60;99.90;;;;;;5093269;28;20043;-72
2023/08/28 08:40:58;;;;;;;4.18;1.17;;;18.40;99.90;;;;;;5094821;28;20119;-72
2023/08/28 08:43:25;;;;;;;2.75;1.52;;;18.40;99.90;;;;;;5094843;28;20044;-72
2023/08/28 08:45:55;;;;;;;2.55;1.33;;;18.50;99.90;;;;;;5091749;28;20044;-72
2023/08/28 08:48:24;;;;;;;1.80;0.90;;;18.50;99.90;;;;;;5094298;28;20063;-72
2023/08/28 08:50:50;;;;;;;6.72;1.30;;;18.40;99.90;;;;;;5094325;28;20493;-72
2023/08/28 08:53:29;;;;;;;3.47;1.42;;;18.30;99.90;;;;;;5094235;28;20040;-73
2023/08/28 08:56:00;;;;;;;4.40;1.40;;;18.30;99.90;;;;;;5094481;28;20067;-73
2023/08/28 08:58:26;;;;;;;2.65;1.38;;;18.20;99.90;;;;;;5094327;28;20486;-73
2023/08/28 09:00:53;;;;;;;3.25;1.73;;;18.20;99.90;;;;;;5092925;28;20546;-72
2023/08/28 09:03:21;;;;;;;4.35;1.20;;;18.20;99.90;;;;;;5091384;28;20084;-73
2023/08/28 09:05:49;;;;;;;5.97;1.75;;;18.20;99.90;;;;;;5093576;28;20040;-73
2023/08/28 09:08:15;;;;;;;3.20;1.20;;;18.60;99.90;;;;;;5093106;28;20044;-73
2023/08/28 09:10:45;;;;;;;1.55;0.93;;;18.90;99.90;;;;;;5093269;28;20040;-72
2023/08/28 09:13:11;;;;;;;4.68;1.30;;;19.20;99.90;;;;;;5091036;28;20044;-73
2023/08/28 09:15:36;;;;;;;2.88;1.75;;;19.40;99.90;;;;;;5088830;28;20067;-66
2023/08/28 09:18:03;;;;;;;2.45;1.15;;;19.50;99.90;;;;;;5093155;28;20040;-66
2023/08/28 09:20:29;;;;;;;2.10;1.10;;;19.60;99.90;;;;;;5078082;28;20044;-66
2023/08/28 09:22:55;;;;;;;2.42;0.80;;;19.70;99.90;;;;;;5086714;28;20378;-66
2023/08/28 09:25:22;;;;;;;1.40;0.68;;;19.70;99.90;;;;;;5088471;28;20040;-66
2023/08/28 09:27:56;;;;;;;2.40;1.25;;;19.60;99.90;;;;;;5090595;28;20043;-66
2023/08/28 09:30:32;;;;;;;2.45;0.80;;;19.70;99.90;;;;;;5091766;28;20051;-76
2023/08/28 09:33:01;;;;;;;2.35;0.80;;;19.80;99.90;;;;;;5085331;28;20047;-69
2023/08/28 09:35:28;;;;;;;3.28;1.05;;;20.00;99.90;;;;;;5089760;28;20059;-70
2023/08/28 09:37:58;;;;;;;1.23;0.70;;;20.20;99.90;;;;;;5088796;28;20036;-69
2023/08/28 09:40:32;;;;;;;2.28;0.95;;;20.30;99.90;;;;;;5087790;28;20089;-65
2023/08/28 09:42:59;;;;;;;3.20;0.90;;;20.20;99.90;;;;;;5091747;28;20036;-66
2023/08/28 09:45:34;;;;;;;2.10;0.80;;;20.00;99.90;;;;;;5091390;28;20093;-66
2023/08/28 09:48:03;;;;;;;2.22;1.00;;;19.80;99.90;;;;;;5091494;28;20063;-66
2023/08/28 09:50:31;;;;;;;3.75;1.20;;;19.60;99.90;;;;;;5089417;28;20040;-66
2023/08/28 09:53:09;;;;;;;3.30;1.27;;;19.50;99.90;;;;;;5086087;28;20040;-66
2023/08/28 09:55:51;;;;;;;1.52;0.80;;;19.60;99.90;;;;;;5089924;28;20032;-66
2023/08/28 09:58:17;;;;;;;2.50;1.00;;;19.90;99.90;;;;;;5091306;28;20378;-65
2023/08/28 10:00:43;;;;;;;2.47;1.10;;;20.10;99.90;;;;;;5089835;28;20036;-65
2023/08/28 10:03:10;;;;;;;2.08;0.98;;;20.20;99.90;;;;;;5089803;28;20063;-66
2023/08/28 10:05:42;;;;;;;2.40;0.77;;;20.40;99.90;;;;;;5080540;28;20051;-66
2023/08/28 10:08:09;;;;;;;1.77;0.70;;;20.50;99.90;;;;;;5086007;28;20044;-66
2023/08/28 10:10:37;;;;;;;2.05;1.08;;;20.70;99.90;;;;;;5091021;28;20040;-66
2023/08/28 10:13:18;;;;;;;3.80;1.00;;;20.80;99.90;;;;;;5084063;28;20044;-66
2023/08/28 10:15:50;;;;;;;2.33;0.90;;;20.90;99.90;;;;;;5088487;28;20039;-66
2023/08/28 10:18:47;;;;;;;1.77;0.80;;;20.80;99.90;;;;;;5091522;28;20043;-65
2023/08/28 10:21:14;;;;;;;1.50;0.60;;;20.70;99.90;;;;;;5091018;28;20178;-65
2023/08/28 10:23:41;;;;;;;1.98;0.70;;;20.50;99.90;;;;;;5082932;28;20032;-66
2023/08/28 10:26:08;;;;;;;1.33;0.70;;;20.20;99.90;;;;;;5090967;28;20497;-65
2023/08/28 10:28:35;;;;;;;1.75;0.70;;;20.10;99.90;;;;;;5092172;28;20044;-66
2023/08/28 10:31:03;;;;;;;4.00;0.73;;;20.10;99.90;;;;;;5089682;28;20094;-65
2023/08/28 10:33:30;;;;;;;1.70;0.70;;;20.30;99.90;;;;;;5092157;28;20050;-65
2023/08/28 10:35:57;;;;;;;1.67;0.60;;;20.50;99.90;;;;;;5086477;28;20036;-65
2023/08/28 10:38:23;;;;;;;2.30;0.60;;;20.70;99.90;;;;;;5088685;28;20040;-66
2023/08/28 10:40:51;;;;;;;1.85;0.70;;;20.80;99.90;;;;;;5090606;28;20035;-65
2023/08/28 10:43:21;;;;;;;1.50;0.60;;;20.90;99.90;;;;;;5088743;28;20043;-65
2023/08/28 10:45:48;;;;;;;1.65;0.68;;;21.10;99.90;;;;;;5080594;28;20040;-65
2023/08/28 10:48:16;;;;;;;2.28;0.90;;;21.10;99.90;;;;;;5073221;28;20062;-65
2023/08/28 10:50:41;;;;;;;2.97;1.17;;;21.30;99.90;;;;;;5084123;28;21544;-66
2023/08/28 10:53:11;;;;;;;2.25;0.90;;;21.30;99.90;;;;;;5081402;28;20093;-66
2023/08/28 10:55:38;;;;;;;3.03;0.77;;;21.40;99.90;;;;;;5084789;28;20075;-66
2023/08/28 10:58:03;;;;;;;2.22;0.98;;;21.50;99.90;;;;;;5090766;28;20119;-65
2023/08/28 11:00:33;;;;;;;1.70;0.77;;;21.60;99.90;;;;;;5081582;28;20115;-65
2023/08/28 11:03:07;;;;;;;1.05;0.65;;;21.80;99.90;;;;;;5091436;28;20070;-65
2023/08/28 11:05:33;;;;;;;2.00;0.85;;;21.90;99.90;;;;;;5089733;28;20051;-65
2023/08/28 11:08:04;;;;;;;1.90;0.43;;;22.00;99.90;;;;;;5090492;28;20044;-65
2023/08/28 11:10:30;;;;;;;1.48;0.90;;;21.90;99.90;;;;;;5090905;28;20040;-66
2023/08/28 11:13:08;;;;;;;1.67;0.60;;;22.00;99.90;;;;;;5088368;28;20043;-66
2023/08/28 11:15:38;;;;;;;1.25;0.80;;;22.00;99.90;;;;;;5089637;28;20038;-66
2023/08/28 11:18:19;;;;;;;1.42;0.65;;;21.90;99.90;;;;;;5091188;28;20039;-66
2023/08/28 11:20:52;;;;;;;1.15;0.43;;;21.80;99.90;;;;;;5090290;28;20028;-66
2023/08/28 11:23:23;;;;;;;1.65;0.60;;;21.60;99.90;;;;;;5091720;28;20237;-66
2023/08/28 11:25:50;;;;;;;1.65;0.63;;;21.50;99.90;;;;;;5084536;28;20075;-66
2023/08/28 11:28:30;;;;;;;2.95;0.88;;;21.30;99.90;;;;;;5093113;28;20048;-65
2023/08/28 11:31:03;;;;;;;4.25;0.77;;;21.30;99.90;;;;;;5089703;28;20470;-65
2023/08/28 11:33:37;;;;;;;1.40;0.60;;;21.40;99.90;;;;;;5093248;28;20756;-66
2023/08/28 11:36:03;;;;;;;3.15;0.80;;;21.60;99.90;;;;;;5095281;28;20036;-66
2023/08/28 11:38:29;;;;;;;2.38;0.60;;;21.80;99.90;;;;;;5094056;28;20392;-66
2023/08/28 11:41:08;;;;;;;1.33;0.68;;;22.00;99.90;;;;;;5094510;28;20032;-65
2023/08/28 11:43:39;;;;;;;1.10;0.60;;;22.10;99.90;;;;;;5081492;28;20044;-66
2023/08/28 11:46:06;;;;;;;1.30;0.70;;;22.10;99.90;;;;;;5092901;28;20101;-66
2023/08/28 11:48:40;;;;;;;1.80;0.70;;;22.00;99.90;;;;;;5095038;28;20401;-66
2023/08/28 11:51:07;;;;;;;1.45;0.80;;;21.80;99.90;;;;;;5083642;28;20040;-66
2023/08/28 11:53:40;;;;;;;2.50;0.70;;;21.60;99.90;;;;;;5085820;28;20408;-66
2023/08/28 11:56:06;;;;;;;2.70;0.60;;;21.50;99.90;;;;;;5090484;28;20477;-65
2023/08/28 11:58:33;;;;;;;1.67;0.60;;;21.40;99.90;;;;;;5095331;28;20035;-66
2023/08/28 12:01:01;;;;;;;2.47;0.70;;;21.30;99.90;;;;;;5094023;28;20043;-65
2023/08/28 12:03:27;;;;;;;1.25;0.70;;;21.20;99.90;;;;;;5093007;28;20032;-66
2023/08/28 12:06:06;;;;;;;1.60;0.85;;;21.10;99.90;;;;;;5090313;28;20036;-66
2023/08/28 12:08:32;;;;;;;1.30;0.68;;;21.10;99.90;;;;;;5092932;28;20040;-66
2023/08/28 12:10:59;;;;;;;1.23;0.80;;;21.10;99.90;;;;;;5093156;28;20399;-66
2023/08/28 12:13:24;;;;;;;1.02;0.47;;;21.10;99.90;;;;;;5078762;28;20123;-66
2023/08/28 12:15:50;;;;;;;1.58;0.60;;;21.00;99.90;;;;;;5077651;28;20056;-66
2023/08/28 12:18:16;;;;;;;1.63;0.60;;;20.90;99.90;;;;;;5093293;28;20035;-66
2023/08/28 12:20:41;;;;;;;0.73;0.50;;;20.80;99.90;;;;;;5093603;28;20141;-66
2023/08/28 12:23:07;;;;;;;1.50;0.70;;;20.70;99.90;;;;;;5090409;28;20405;-65
2023/08/28 12:25:41;;;;;;;1.77;0.90;;;20.60;99.90;;;;;;5090312;28;20036;-65
2023/08/28 12:28:09;;;;;;;2.13;0.75;;;20.50;99.90;;;;;;5092160;28;20036;-66
2023/08/28 12:30:39;;;;;;;1.30;0.65;;;20.50;99.90;;;;;;5092032;28;20076;-66
2023/08/28 12:33:08;;;;;;;2.80;0.70;;;20.50;99.90;;;;;;5085355;28;20037;-66
2023/08/28 12:35:41;;;;;;;2.25;0.80;;;20.50;99.90;;;;;;5087683;28;20743;-66
2023/08/28 12:38:07;;;;;;;1.40;0.57;;;20.60;99.90;;;;;;5090805;22;20044;-64
2023/08/28 12:40:35;;;;;;;2.22;0.90;;;20.60;99.90;;;;;;5055528;28;20448;-64
2023/08/28 12:43:03;;;;;;;2.47;0.90;;;20.70;99.90;;;;;;5058698;28;20037;-64